createdAt,value
2018-04-26T00:01:09.975Z,5.13
2018-04-26T00:05:12.503Z,5.50
2018-04-26T00:09:15.028Z,5.70
2018-04-26T00:13:18.323Z,5.17
2018-04-26T00:17:20.829Z,5.63
2018-04-26T00:21:23.350Z,5.20
2018-04-26T00:25:25.880Z,5.17
2018-04-26T00:29:29.171Z,5.37
2018-04-26T00:33:31.704Z,4.50
2018-04-26T00:37:34.975Z,5.37
2018-04-26T00:41:39.164Z,5.00
2018-04-26T00:45:41.691Z,5.60
2018-04-26T00:49:44.979Z,5.23
2018-04-26T00:53:48.267Z,4.90
2018-04-26T00:57:50.779Z,5.40
2018-04-26T01:01:54.068Z,5.07
2018-04-26T01:05:57.363Z,4.90
2018-04-26T01:09:59.879Z,5.20
2018-04-26T01:14:02.403Z,4.50
2018-04-26T01:18:04.907Z,4.53
2018-04-26T01:22:07.428Z,5.07
2018-04-26T01:26:09.959Z,5.40
2018-04-26T01:30:12.475Z,4.87
2018-04-26T01:34:15.770Z,5.43
2018-04-26T01:38:18.297Z,5.00
2018-04-26T01:42:20.840Z,4.97
2018-04-26T01:46:23.368Z,5.00
2018-04-26T01:50:26.731Z,4.93
2018-04-26T01:54:29.265Z,4.60
2018-04-26T01:58:31.776Z,4.50
2018-04-26T02:02:34.312Z,4.97
2018-04-26T02:06:36.840Z,5.20
2018-04-26T02:10:39.368Z,5.50
2018-04-26T02:14:42.660Z,5.03
2018-04-26T02:18:45.184Z,5.10
2018-04-26T02:22:47.701Z,4.90
2018-04-26T02:26:50.237Z,5.33
2018-04-26T02:30:52.759Z,5.80
2018-04-26T02:34:55.292Z,6.07
2018-04-26T02:38:58.589Z,5.97
2018-04-26T02:43:01.877Z,6.27
2018-04-26T02:47:04.413Z,6.23
2018-04-26T02:51:06.944Z,6.00
2018-04-26T02:55:09.479Z,6.13
2018-04-26T02:59:12.016Z,5.67
2018-04-26T03:03:14.527Z,6.23
2018-04-26T03:07:17.821Z,5.60
2018-04-26T03:11:21.126Z,6.20
2018-04-26T03:15:24.419Z,6.10
2018-04-26T03:19:27.724Z,5.30
2018-04-26T03:23:31.000Z,5.70
2018-04-26T03:27:33.527Z,5.60
2018-04-26T03:31:36.845Z,6.13
2018-04-26T03:35:39.382Z,6.37
2018-04-26T03:39:41.922Z,6.43
2018-04-26T03:43:44.433Z,6.40
2018-04-26T03:47:46.968Z,6.67
2018-04-26T03:51:50.268Z,6.57
2018-04-26T03:55:53.568Z,6.60
2018-04-26T04:00:07.875Z,7.10
2018-04-26T04:04:22.079Z,6.90
2018-04-26T04:08:25.373Z,7.50
2018-04-26T04:12:27.907Z,8.90
2018-04-26T04:16:30.432Z,8.80
2018-04-26T04:20:32.981Z,6.60
2018-04-26T04:24:35.525Z,5.10
2018-04-26T04:28:38.796Z,5.22
2018-04-26T04:32:41.321Z,5.37
2018-04-26T04:36:44.610Z,4.10
2018-04-26T04:40:47.127Z,3.00
2018-04-26T04:44:49.652Z,2.47
2018-04-26T04:48:52.363Z,1.90
2018-04-26T04:53:03.748Z,1.10
2018-04-26T04:57:06.273Z,1.20
2018-04-26T05:01:13.901Z,0.90
2018-04-26T05:05:16.460Z,1.07
2018-04-26T05:09:19.895Z,0.97
2018-04-26T05:13:22.435Z,1.17
2018-04-26T05:17:25.733Z,1.17
2018-04-26T05:21:29.028Z,1.17
2018-04-26T05:25:32.890Z,1.40
2018-04-26T05:29:35.400Z,1.63
2018-04-26T05:33:37.966Z,2.10
2018-04-26T05:37:40.495Z,2.07
2018-04-26T05:41:43.020Z,2.20
2018-04-26T05:45:45.547Z,2.10
2018-04-26T05:49:48.057Z,2.27
2018-04-26T05:53:50.609Z,2.00
2018-04-26T05:57:53.139Z,2.53
2018-04-26T06:01:55.667Z,2.03
2018-04-26T06:05:58.197Z,2.00
2018-04-26T06:10:01.465Z,1.70
2018-04-26T06:14:03.988Z,1.63
2018-04-26T06:18:07.280Z,1.60
2018-04-26T06:22:10.573Z,1.70
2018-04-26T06:26:13.106Z,1.63
2018-04-26T06:30:15.629Z,1.37
2018-04-26T06:34:18.155Z,2.53
2018-04-26T06:38:20.676Z,2.50
2018-04-26T06:42:23.217Z,2.00
2018-04-26T06:46:26.518Z,2.73
2018-04-26T06:50:29.850Z,2.40
2018-04-26T06:54:32.344Z,2.97
2018-04-26T06:58:34.875Z,3.00
2018-04-26T07:02:37.410Z,4.00
2018-04-26T07:06:39.965Z,4.20
2018-04-26T07:10:43.252Z,4.73
2018-04-26T07:14:45.759Z,5.20
2018-04-26T07:18:48.309Z,5.57
2018-04-26T07:22:50.835Z,5.30
2018-04-26T07:26:53.367Z,5.93
2018-04-26T07:30:55.888Z,5.30
2018-04-26T07:34:59.274Z,6.27
2018-04-26T07:39:02.600Z,7.03
2018-04-26T07:43:05.897Z,6.30
2018-04-26T07:47:09.192Z,6.83
2018-04-26T07:51:12.485Z,6.43
2018-04-26T07:55:15.760Z,7.73
2018-04-26T07:59:18.280Z,6.53
2018-04-26T08:03:21.768Z,6.67
2018-04-26T08:07:24.291Z,5.40
2018-04-26T08:11:26.827Z,5.17
2018-04-26T08:15:29.335Z,6.30
2018-04-26T08:19:32.636Z,6.87
2018-04-26T08:23:35.940Z,7.10
2018-04-26T08:27:38.475Z,5.93
2018-04-26T08:31:41.016Z,7.27
2018-04-26T08:35:43.528Z,6.27
2018-04-26T08:39:46.059Z,5.90
2018-04-26T08:43:48.588Z,5.80
2018-04-26T08:47:51.123Z,6.20
2018-04-26T08:51:53.676Z,5.77
2018-04-26T08:55:56.193Z,5.17
2018-04-26T08:59:58.721Z,4.50
2018-04-26T09:04:01.297Z,3.73
2018-04-26T09:08:04.593Z,6.97
2018-04-26T09:12:07.123Z,4.70
2018-04-26T09:16:09.657Z,3.83
2018-04-26T09:20:12.160Z,4.40
2018-04-26T09:24:15.458Z,3.20
2018-04-26T09:28:18.752Z,3.13
2018-04-26T09:32:22.055Z,4.00
2018-04-26T09:36:24.587Z,4.73
2018-04-26T09:40:27.107Z,6.87
2018-04-26T09:44:29.636Z,5.67
2018-04-26T09:48:32.250Z,5.90
2018-04-26T09:52:34.710Z,5.90
2018-04-26T09:56:37.248Z,5.83
2018-04-26T10:00:42.708Z,6.10
2018-04-26T10:04:50.848Z,5.00
2018-04-26T10:08:54.227Z,5.53
2018-04-26T10:12:56.691Z,5.67
2018-04-26T10:16:59.252Z,5.60
2018-04-26T10:21:01.761Z,6.10
2018-04-26T10:25:04.301Z,5.03
2018-04-26T10:29:06.826Z,5.33
2018-04-26T10:33:09.359Z,5.00
2018-04-26T10:37:11.884Z,3.70
2018-04-26T10:41:14.392Z,3.00
2018-04-26T10:45:16.920Z,1.80
2018-04-26T10:49:19.456Z,1.40
2018-04-26T10:53:21.995Z,1.10
2018-04-26T10:57:24.529Z,1.20
2018-04-26T11:01:27.049Z,1.53
2018-04-26T11:05:29.590Z,1.40
2018-04-26T11:09:32.119Z,1.83
2018-04-26T11:13:35.440Z,1.70
2018-04-26T11:17:37.966Z,2.03
2018-04-26T11:21:40.476Z,2.13
2018-04-26T11:25:43.767Z,2.40
2018-04-26T11:29:46.337Z,2.33
2018-04-26T11:33:48.873Z,2.30
2018-04-26T11:37:51.406Z,1.83
2018-04-26T11:41:53.920Z,1.90
2018-04-26T11:45:57.220Z,2.33
2018-04-26T11:50:00.519Z,1.80
2018-04-26T11:54:03.126Z,2.20
2018-04-26T11:58:06.421Z,2.57
2018-04-26T12:02:09.720Z,1.70
2018-04-26T12:06:13.018Z,2.20
2018-04-26T12:10:16.325Z,2.50
2018-04-26T12:14:19.625Z,2.50
2018-04-26T12:18:22.934Z,2.40
2018-04-26T12:22:26.230Z,2.30
2018-04-26T12:26:29.507Z,4.50
2018-04-26T12:30:32.028Z,3.80
2018-04-26T12:34:35.328Z,3.23
2018-04-26T12:38:38.635Z,13.57
2018-04-26T12:42:41.171Z,2.30
2018-04-26T12:46:43.684Z,21.90
2018-04-26T12:50:46.217Z,2.23
2018-04-26T12:54:48.754Z,5.23
2018-04-26T12:58:51.287Z,3.00
2018-04-26T13:02:53.824Z,2.10
2018-04-26T13:06:57.094Z,2.33
2018-04-26T13:10:59.626Z,2.97
2018-04-26T13:15:02.932Z,3.03
2018-04-26T13:19:06.240Z,3.33
2018-04-26T13:23:08.765Z,2.63
2018-04-26T13:27:11.290Z,2.40
2018-04-26T13:31:13.808Z,2.53
2018-04-26T13:35:16.344Z,3.60
2018-04-26T13:39:18.875Z,4.87
2018-04-26T13:43:21.416Z,3.57
2018-04-26T13:47:23.920Z,4.20
2018-04-26T13:51:26.452Z,4.03
2018-04-26T13:55:29.008Z,4.70
2018-04-26T13:59:31.540Z,3.77
2018-04-26T14:03:34.160Z,3.60
2018-04-26T14:07:36.604Z,2.60
2018-04-26T14:11:39.264Z,2.80
2018-04-26T14:15:41.800Z,2.90
2018-04-26T14:19:44.347Z,2.53
2018-04-26T14:23:46.879Z,2.70
2018-04-26T14:27:50.191Z,3.23
2018-04-26T14:31:53.465Z,2.90
2018-04-26T14:35:56.005Z,3.00
2018-04-26T14:39:58.531Z,3.23
2018-04-26T14:44:01.067Z,3.10
2018-04-26T14:48:03.595Z,3.30
2018-04-26T14:52:06.125Z,4.20
2018-04-26T14:56:08.652Z,3.50
2018-04-26T15:00:11.245Z,1.90
2018-04-26T15:04:13.767Z,1.13
2018-04-26T15:08:16.308Z,0.93
2018-04-26T15:12:18.819Z,1.10
2018-04-26T15:16:21.372Z,1.10
2018-04-26T15:20:23.917Z,1.00
2018-04-26T15:24:26.449Z,0.90
2018-04-26T15:28:28.989Z,1.10
2018-04-26T15:32:31.513Z,1.50
2018-04-26T15:36:34.980Z,1.57
2018-04-26T15:40:37.698Z,1.60
2018-04-26T15:44:40.276Z,2.37
2018-04-26T15:48:43.549Z,1.93
2018-04-26T15:53:04.643Z,2.33
2018-04-26T15:57:24.948Z,2.50
2018-04-26T16:11:24.564Z,2.90
2018-04-26T16:15:39.040Z,2.80
2018-04-26T16:19:59.338Z,3.05
2018-04-26T16:24:19.228Z,2.50
2018-04-26T16:28:53.265Z,2.07
2018-04-26T16:33:07.867Z,1.73
2018-04-26T16:37:22.206Z,1.80
2018-04-26T16:41:24.739Z,1.83
2018-04-26T16:45:28.041Z,1.70
2018-04-26T16:49:31.312Z,1.40
2018-04-26T16:53:33.835Z,1.50
2018-04-26T16:57:37.136Z,1.50
2018-04-26T17:01:39.671Z,1.70
2018-04-26T17:05:42.206Z,2.07
2018-04-26T17:09:45.489Z,1.70
2018-04-26T17:13:48.030Z,9.97
2018-04-26T17:17:50.567Z,10.33
2018-04-26T17:21:53.887Z,4.80
2018-04-26T17:25:56.440Z,4.60
2018-04-26T17:29:58.956Z,2.10
2018-04-26T17:34:02.255Z,2.03
2018-04-26T17:38:05.556Z,2.57
2018-04-26T17:42:08.092Z,2.50
2018-04-26T17:46:10.639Z,2.10
2018-04-26T17:50:13.173Z,2.10
2018-04-26T17:54:15.708Z,1.77
2018-04-26T17:58:18.288Z,1.70
2018-04-26T18:02:20.788Z,1.70
2018-04-26T18:06:23.313Z,2.20
2018-04-26T18:10:25.857Z,3.90
2018-04-26T18:14:28.400Z,2.33
2018-04-26T18:18:30.932Z,1.90
2018-04-26T18:22:33.469Z,1.90
2018-04-26T18:26:35.999Z,2.23
2018-04-26T18:30:38.522Z,2.20
2018-04-26T18:34:41.059Z,2.30
2018-04-26T18:38:43.591Z,2.27
2018-04-26T18:42:46.132Z,2.93
2018-04-26T18:46:50.501Z,21.10
2018-04-26T18:50:53.016Z,2.40
2018-04-26T18:54:56.316Z,2.23
2018-04-26T18:58:59.620Z,1.70
2018-04-26T19:03:02.932Z,1.97
2018-04-26T19:07:06.256Z,2.30
2018-04-26T19:11:08.780Z,1.70
2018-04-26T19:15:11.340Z,2.03
2018-04-26T19:19:13.874Z,2.10
2018-04-26T19:23:16.729Z,2.20
2018-04-26T19:27:19.692Z,2.00
2018-04-26T19:31:22.221Z,2.10
2018-04-26T19:35:24.813Z,2.50
2018-04-26T19:39:27.429Z,1.90
2018-04-26T19:43:29.898Z,2.00
2018-04-26T19:47:33.283Z,2.37
2018-04-26T19:51:35.806Z,2.83
2018-04-26T19:55:38.342Z,3.00
2018-04-26T19:59:40.889Z,2.80
2018-04-26T20:03:44.834Z,3.13
2018-04-26T20:07:47.368Z,2.93
2018-04-26T20:11:50.706Z,3.30
2018-04-26T20:15:53.237Z,2.80
2018-04-26T20:19:55.767Z,3.43
2018-04-26T20:23:58.295Z,4.60
2018-04-26T20:28:00.829Z,4.50
2018-04-26T20:32:05.311Z,4.30
2018-04-26T20:36:07.909Z,4.10
2018-04-26T20:40:16.423Z,4.13
2018-04-26T20:44:30.659Z,4.57
2018-04-26T20:48:40.718Z,4.30
2018-04-26T20:52:43.260Z,3.80
2018-04-26T20:56:45.768Z,4.57
2018-04-26T21:00:48.320Z,5.03
2018-04-26T21:04:50.868Z,6.13
2018-04-26T21:08:53.402Z,6.33
2018-04-26T21:12:55.944Z,6.40
2018-04-26T21:16:58.457Z,6.43
2018-04-26T21:21:00.996Z,7.90
2018-04-26T21:25:03.558Z,9.33
2018-04-26T21:29:06.089Z,9.07
2018-04-26T21:33:08.624Z,9.67
2018-04-26T21:37:11.160Z,10.77
2018-04-26T21:41:13.697Z,9.80
2018-04-26T21:45:16.232Z,9.90
2018-04-26T21:49:18.279Z,9.73
2018-04-26T21:53:26.572Z,10.10
2018-04-26T21:57:34.752Z,10.03
2018-04-26T22:01:43.509Z,9.77
2018-04-26T22:05:46.965Z,10.07
2018-04-26T22:09:49.504Z,11.00
2018-04-26T22:13:53.597Z,10.83
2018-04-26T22:17:56.128Z,10.40
2018-04-26T22:21:58.640Z,10.03
2018-04-26T22:26:01.268Z,9.90
2018-04-26T22:30:03.814Z,10.60
2018-04-26T22:34:06.339Z,9.90
2018-04-26T22:38:08.882Z,9.80
2018-04-26T22:42:11.406Z,9.50
2018-04-26T22:46:13.948Z,9.67
2018-04-26T22:50:16.481Z,9.67
2018-04-26T22:54:19.015Z,9.90
2018-04-26T22:58:21.556Z,10.10
2018-04-26T23:02:24.080Z,10.37
2018-04-26T23:06:26.614Z,10.57
2018-04-26T23:10:29.144Z,10.60
2018-04-26T23:14:31.684Z,10.60
2018-04-26T23:18:36.692Z,11.60
2018-04-26T23:22:39.216Z,11.43
2018-04-26T23:26:42.521Z,11.73
2018-04-26T23:30:45.831Z,11.97
2018-04-26T23:34:49.137Z,12.13
2018-04-26T23:38:52.441Z,12.57
2018-04-26T23:42:54.994Z,12.23
2018-04-26T23:46:57.524Z,12.50
2018-04-26T23:51:00.063Z,12.47
2018-04-26T23:55:02.603Z,12.87
2018-04-26T23:59:05.142Z,12.93
